Time;durP1;ratioP1;P1;durP2;ratioP2;P2;SDS_P1;SDS_P2;PMS_P1;PMS_P2;Temp;Humidity;BMP_temperature;BMP_pressure;BME280_temperature;BME280_humidity;BME280_pressure;Samples;Min_cycle;Max_cycle;Signal;HPM_P1;HPM_P2
2022/10/17 00:01:24;;;;;;;26.13;19.27;;;;;;;12.82;100.00;68192.34;4915044;29;20044;-77
2022/10/17 00:03:50;;;;;;;24.65;20.25;;;;;;;;;;4918947;29;20286;-79
2022/10/17 00:06:15;;;;;;;24.87;19.43;;;;;;;12.83;100.00;68190.78;4918924;29;20040;-78
2022/10/17 00:08:42;;;;;;;25.23;19.55;;;;;;;12.82;100.00;68192.34;4916868;29;20280;-78
2022/10/17 00:11:14;;;;;;;23.33;18.92;;;;;;;12.80;100.00;68195.97;4917626;29;20583;-80
2022/10/17 00:13:40;;;;;;;26.70;20.50;;;;;;;12.78;100.00;68187.78;4917847;29;20044;-78
2022/10/17 00:16:05;;;;;;;25.58;19.23;;;;;;;12.75;100.00;68184.94;4915178;29;20051;-78
2022/10/17 00:18:31;;;;;;;25.80;20.02;;;;;;;12.75;100.00;68184.94;4914210;29;20028;-76
2022/10/17 00:20:56;;;;;;;23.75;18.80;;;;;;;12.75;100.00;68182.28;4917540;29;20051;-82
2022/10/17 00:23:22;;;;;;;26.63;20.95;;;;;;;12.75;100.00;68182.28;4917269;29;20100;-80
2022/10/17 00:25:57;;;;;;;28.98;19.75;;;;;;;12.77;100.00;68186.66;4917823;29;20040;-80
2022/10/17 00:28:22;;;;;;;30.10;20.30;;;;;;;12.80;100.00;68190.63;4914333;29;20051;-81
2022/10/17 00:30:54;;;;;;;28.42;20.95;;;;;;;12.82;100.00;68192.91;4916637;29;20065;-79
2022/10/17 00:33:20;;;;;;;29.45;21.08;;;;;;;12.83;100.00;68194.03;4916408;29;20048;-80
2022/10/17 00:35:45;;;;;;;27.73;20.40;;;;;;;12.84;100.00;68195.19;4916706;29;20048;-77
2022/10/17 00:38:10;;;;;;;23.88;19.05;;;;;;;12.86;100.00;68197.47;4912617;29;20048;-79
2022/10/17 00:40:36;;;;;;;30.88;19.58;;;;;;;12.92;100.00;68197.78;4899448;29;20044;-82
2022/10/17 00:43:01;;;;;;;27.73;21.15;;;;;;;12.90;100.00;68195.53;4898339;29;20135;-78
2022/10/17 00:45:29;;;;;;;25.55;20.02;;;;;;;12.89;100.00;68200.31;4921838;29;20044;-79
2022/10/17 00:48:02;;;;;;;25.55;19.85;;;;;;;12.92;100.00;68203.13;4911130;29;20048;-80
2022/10/17 00:50:28;;;;;;;26.73;20.23;;;;;;;12.92;100.00;68203.13;4912851;29;20040;-77
2022/10/17 00:52:59;;;;;;;24.80;19.77;;;;;;;12.92;100.00;68197.78;4913009;29;20510;-78
2022/10/17 00:55:29;;;;;;;27.50;20.40;;;;;;;12.93;100.00;68204.28;4911241;29;20067;-79
2022/10/17 00:57:56;;;;;;;26.88;21.23;;;;;;;;;;4912610;29;20044;-79
2022/10/17 01:00:21;;;;;;;26.17;20.40;;;;;;;;;;4917496;29;20039;-79
2022/10/17 01:02:46;;;;;;;28.65;21.17;;;;;;;;;;4923569;29;20047;-80
2022/10/17 01:05:13;;;;;;;25.30;19.75;;;;;;;12.96;100.00;68202.34;4913800;29;20040;-78
2022/10/17 01:07:40;;;;;;;29.27;20.73;;;;;;;12.95;100.00;68207.13;4911629;29;20095;-78
2022/10/17 01:10:07;;;;;;;29.33;22.13;;;;;;;12.97;100.00;68206.13;4912475;29;20541;-79
2022/10/17 01:12:51;;;;;;;26.55;19.58;;;;;;;12.94;100.00;68205.41;4910998;29;20145;-78
2022/10/17 01:15:33;;;;;;;27.60;20.95;;;;;;;12.95;100.00;68212.47;4912126;29;20471;-78
2022/10/17 01:18:39;;;;;;;28.85;21.73;;;;;;;12.95;100.00;68206.56;4912257;29;20100;-78
2022/10/17 01:21:28;;;;;;;28.10;22.08;;;;;;;12.94;100.00;68205.41;4923344;29;20565;-79
2022/10/17 01:24:09;;;;;;;28.95;22.65;;;;;;;12.95;100.00;68207.13;4924750;29;20043;-79
2022/10/17 01:27:07;;;;;;;32.00;21.23;;;;;;;12.94;100.00;68197.38;4911834;29;20127;-78
2022/10/17 01:30:00;;;;;;;33.58;22.88;;;;;;;12.97;100.00;68206.13;4900156;29;20616;-78
2022/10/17 01:32:35;;;;;;;30.55;22.15;;;;;;;12.99;100.00;68211.09;4912559;29;20040;-78
2022/10/17 01:35:21;;;;;;;30.48;19.55;;;;;;;;;;4912976;29;20094;-82
2022/10/17 01:37:54;;;;;;;30.08;20.85;;;;;;;13.01;100.00;68211.25;4913508;29;20043;-79
2022/10/17 01:40:35;;;;;;;31.85;23.92;;;;;;;13.07;100.00;68220.75;4913799;29;20043;-79
2022/10/17 01:43:32;;;;;;;31.63;23.67;;;;;;;13.12;100.00;68220.53;4900618;29;20130;-78
2022/10/17 01:46:05;;;;;;;28.08;21.33;;;;;;;13.14;100.00;68227.56;4923347;29;20571;-78
2022/10/17 01:48:36;;;;;;;28.25;21.42;;;;;;;13.12;100.00;68225.88;4910705;29;20419;-79
2022/10/17 01:51:10;;;;;;;32.35;21.95;;;;;;;13.16;100.00;68227.75;4910734;29;20035;-78
2022/10/17 01:53:44;;;;;;;28.27;20.45;;;;;;;13.17;100.00;68228.31;4911370;29;20048;-78
2022/10/17 01:56:13;;;;;;;29.45;21.63;;;;;;;13.17;100.00;68228.31;4911900;29;20036;-79
2022/10/17 01:58:47;;;;;;;29.95;22.05;;;;;;;13.16;100.00;68230.41;4911280;29;20040;-78
2022/10/17 02:01:14;;;;;;;33.38;22.83;;;;;;;13.19;100.00;68233.84;4912084;29;20040;-79
2022/10/17 02:03:42;;;;;;;34.28;21.35;;;;;;;13.17;100.00;68231.00;4911633;29;20040;-78
2022/10/17 02:06:07;;;;;;;32.40;23.40;;;;;;;13.17;100.00;68231.56;4911462;29;20048;-78
2022/10/17 02:08:43;;;;;;;28.63;22.80;;;;;;;;;;4910219;29;20032;-78
2022/10/17 02:11:13;;;;;;;31.02;22.85;;;;;;;13.16;100.00;68225.06;4911996;29;20051;-78
2022/10/17 02:14:21;;;;;;;36.47;25.05;;;;;;;13.16;100.00;68235.75;4910560;29;20054;-79
2022/10/17 02:17:05;;;;;;;34.65;24.02;;;;;;;;;;4911510;29;20040;-78
2022/10/17 02:19:39;;;;;;;35.10;23.63;;;;;;;13.14;100.00;68233.50;4908675;29;20044;-78
2022/10/17 02:22:36;;;;;;;34.67;24.75;;;;;;;13.18;100.00;68230.03;4912380;29;20127;-78
2022/10/17 02:25:11;;;;;;;36.55;26.52;;;;;;;;;;4914035;29;20046;-79
2022/10/17 02:27:48;;;;;;;32.72;23.33;;;;;;;13.25;100.00;68245.44;4912732;29;20530;-78
2022/10/17 02:30:18;;;;;;;35.70;24.35;;;;;;;;;;4905687;29;20044;-78
2022/10/17 02:32:51;;;;;;;33.25;24.30;;;;;;;13.29;100.00;68245.22;4907716;29;20520;-78
2022/10/17 02:35:18;;;;;;;34.15;24.92;;;;;;;;;;4908839;29;20421;-79
2022/10/17 02:37:44;;;;;;;34.00;24.65;;;;;;;;;;4912765;29;20528;-78
2022/10/17 02:40:10;;;;;;;32.05;22.73;;;;;;;;;;4905616;29;20131;-79
2022/10/17 02:42:36;;;;;;;32.55;24.42;;;;;;;13.46;100.00;68263.41;4918916;29;20042;-79
2022/10/17 02:45:04;;;;;;;32.97;23.38;;;;;;;13.48;100.00;68266.25;4913523;29;20285;-79
2022/10/17 02:47:50;;;;;;;32.22;22.08;;;;;;;13.56;100.00;68271.56;4915228;29;20039;-79
2022/10/17 02:50:15;;;;;;;32.80;23.15;;;;;;;13.56;100.00;68271.56;4913372;29;20407;-79
2022/10/17 02:53:03;;;;;;;31.45;22.60;;;;;;;13.55;100.00;68273.66;4911866;29;20052;-78
2022/10/17 02:55:37;;;;;;;32.38;23.55;;;;;;;13.58;100.00;68276.50;4912946;29;20092;-79
2022/10/17 02:58:05;;;;;;;29.83;21.38;;;;;;;;;;4902444;28;20128;-79
2022/10/17 03:00:31;;;;;;;31.63;22.75;;;;;;;13.63;100.00;68288.09;4916084;29;20111;-78
2022/10/17 03:02:57;;;;;;;33.60;23.73;;;;;;;13.66;100.00;68286.16;4912228;29;20051;-78
2022/10/17 03:05:28;;;;;;;27.88;21.77;;;;;;;13.68;100.00;68285.78;4910967;29;20044;-79
2022/10/17 03:07:54;;;;;;;29.67;20.83;;;;;;;13.67;100.00;68284.06;4923105;29;20043;-78
2022/10/17 03:10:20;;;;;;;31.42;21.27;;;;;;;;;;4919306;29;20135;-78
2022/10/17 03:12:45;;;;;;;32.67;20.42;;;;;;;13.72;100.00;68289.75;4920485;29;20122;-79
2022/10/17 03:15:11;;;;;;;34.05;22.38;;;;;;;;;;4913007;29;20140;-79
2022/10/17 03:17:37;;;;;;;28.45;21.25;;;;;;;13.73;100.00;68293.56;4918425;29;21520;-78
2022/10/17 03:20:03;;;;;;;30.42;21.13;;;;;;;13.74;100.00;68295.28;4917797;29;20037;-78
2022/10/17 03:22:29;;;;;;;29.73;19.70;;;;;;;13.75;100.00;68296.41;4934436;29;20128;-78
2022/10/17 03:24:54;;;;;;;28.58;21.20;;;;;;;13.74;100.00;68295.28;4915661;29;20059;-78
2022/10/17 03:27:19;;;;;;;28.30;20.95;;;;;;;;;;4911531;29;20408;-78
2022/10/17 03:29:44;;;;;;;29.87;20.13;;;;;;;;;;4909459;29;20404;-77
2022/10/17 03:32:10;;;;;;;29.93;20.07;;;;;;;13.69;100.00;68286.91;4914947;29;20695;-79
2022/10/17 03:34:35;;;;;;;27.75;20.10;;;;;;;13.69;100.00;68289.00;4911862;29;20660;-77
2022/10/17 03:37:00;;;;;;;27.50;20.35;;;;;;;13.71;100.00;68288.63;4913122;29;20044;-77
2022/10/17 03:39:26;;;;;;;30.17;21.75;;;;;;;13.72;100.00;68290.34;4915632;29;20056;-79
2022/10/17 03:41:51;;;;;;;28.42;19.42;;;;;;;13.73;100.00;68290.91;4921490;29;20098;-78
2022/10/17 03:44:16;;;;;;;30.13;21.00;;;;;;;;;;4915132;29;20056;-78
2022/10/17 03:46:42;;;;;;;29.73;20.92;;;;;;;13.74;100.00;68292.59;4911106;29;20048;-77
2022/10/17 03:49:08;;;;;;;26.15;20.73;;;;;;;13.75;100.00;68295.84;4910718;29;20051;-78
2022/10/17 03:51:34;;;;;;;30.77;21.02;;;;;;;;;;4924941;29;20748;-78
2022/10/17 03:54:00;;;;;;;32.03;19.05;;;;;;;13.77;100.00;68298.13;4911496;29;20055;-78
2022/10/17 03:56:26;;;;;;;32.78;21.92;;;;;;;13.78;100.00;68296.56;4920743;29;20067;-79
2022/10/17 03:58:53;;;;;;;26.50;18.63;;;;;;;13.84;100.00;68302.81;4907349;29;20055;-79
2022/10/17 04:01:18;;;;;;;25.80;18.55;;;;;;;;;;4909468;29;20040;-78
2022/10/17 04:03:51;;;;;;;26.52;20.35;;;;;;;13.92;100.00;68315.19;4911755;29;20415;-79
2022/10/17 04:06:17;;;;;;;24.42;18.33;;;;;;;13.93;100.00;68316.31;4916060;29;20110;-79
2022/10/17 04:08:42;;;;;;;25.40;18.90;;;;;;;13.92;100.00;68315.19;4909038;29;20048;-78
2022/10/17 04:11:09;;;;;;;25.90;19.20;;;;;;;13.93;100.00;68315.75;4915420;29;20127;-79
2022/10/17 04:13:35;;;;;;;24.38;18.98;;;;;;;13.92;100.00;68309.81;4905672;29;20035;-79
2022/10/17 04:16:06;;;;;;;28.50;20.27;;;;;;;13.94;100.00;68311.53;4919685;29;20043;-78
2022/10/17 04:18:32;;;;;;;26.35;20.08;;;;;;;13.94;100.00;68316.88;4912992;29;20047;-80
2022/10/17 04:21:01;;;;;;;31.15;19.50;;;;;;;13.93;100.00;68310.97;4910861;29;20055;-78
2022/10/17 04:23:26;;;;;;;27.15;19.27;;;;;;;13.93;100.00;68316.31;4913931;29;20044;-77
2022/10/17 04:25:55;;;;;;;30.55;19.95;;;;;;;13.96;100.00;68313.81;4911752;29;20452;-79
2022/10/17 04:28:21;;;;;;;27.70;20.90;;;;;;;13.99;100.00;68323.16;4917851;29;20054;-76
2022/10/17 04:30:46;;;;;;;26.55;18.70;;;;;;;14.02;100.00;68325.44;4918224;29;20055;-79
2022/10/17 04:33:11;;;;;;;26.33;19.88;;;;;;;14.00;100.00;68324.28;4908276;29;20042;-79
2022/10/17 04:35:37;;;;;;;25.98;19.45;;;;;;;14.03;100.00;68327.13;4913007;29;20065;-79
2022/10/17 04:38:02;;;;;;;26.55;18.38;;;;;;;14.08;100.00;68332.25;4905228;29;20139;-79
2022/10/17 04:40:27;;;;;;;29.52;19.35;;;;;;;;;;4908434;29;20062;-78
2022/10/17 04:42:53;;;;;;;26.15;18.55;;;;;;;;;;4916144;29;20128;-80
2022/10/17 04:45:18;;;;;;;24.87;18.37;;;;;;;14.10;100.00;68335.09;4914786;29;20526;-79
2022/10/17 04:47:43;;;;;;;24.88;19.10;;;;;;;14.12;100.00;68336.81;4907221;29;20787;-78
2022/10/17 04:50:08;;;;;;;24.13;18.25;;;;;;;;;;4909233;29;20519;-78
2022/10/17 04:52:37;;;;;;;28.60;17.95;;;;;;;14.20;100.00;68346.47;4915409;29;20044;-78
2022/10/17 04:55:05;;;;;;;26.60;18.80;;;;;;;14.27;100.00;68353.88;4914738;29;20100;-79
2022/10/17 04:57:34;;;;;;;25.98;17.00;;;;;;;14.34;100.00;68361.28;4909607;29;20040;-79
2022/10/17 04:59:59;;;;;;;24.17;16.73;;;;;;;14.35;100.00;68362.41;4916108;29;20137;-79
2022/10/17 05:02:25;;;;;;;21.83;15.65;;;;;;;14.40;100.00;68366.00;4912271;29;20494;-79
2022/10/17 05:04:50;;;;;;;23.52;16.13;;;;;;;14.44;100.00;68372.66;4920404;29;20043;-79
2022/10/17 05:07:15;;;;;;;20.73;15.88;;;;;;;14.53;100.00;68382.34;4916561;29;20498;-80
2022/10/17 05:09:41;;;;;;;22.77;16.42;;;;;;;14.56;100.00;68385.78;4915903;29;20047;-79
2022/10/17 05:12:06;;;;;;;21.38;14.82;;;;;;;14.55;100.00;68385.19;4908289;29;20128;-79
2022/10/17 05:14:31;;;;;;;20.40;14.77;;;;;;;;;;4913767;29;20043;-79
2022/10/17 05:16:57;;;;;;;18.53;13.43;;;;;;;14.69;100.00;68397.88;4915276;29;20067;-79
2022/10/17 05:19:22;;;;;;;20.77;15.40;;;;;;;14.70;100.00;68401.13;4916446;29;20300;-79
2022/10/17 05:21:47;;;;;;;18.08;13.38;;;;;;;14.72;100.00;68400.72;4910783;29;20550;-79
2022/10/17 05:24:13;;;;;;;20.35;13.55;;;;;;;14.78;100.00;68415.59;4911365;29;20470;-79
2022/10/17 05:26:39;;;;;;;18.48;14.00;;;;;;;14.85;100.00;68415.53;4918124;29;20456;-80
2022/10/17 05:29:05;;;;;;;16.90;12.85;;;;;;;14.92;100.00;68422.94;4915296;29;20144;-80
2022/10/17 05:31:30;;;;;;;16.33;12.85;;;;;;;15.04;100.00;68436.59;4916067;29;20052;-80
2022/10/17 05:33:59;;;;;;;18.75;12.57;;;;;;;;;;4914261;29;20036;-79
2022/10/17 05:36:25;;;;;;;16.42;13.27;;;;;;;15.14;100.00;68450.13;4915953;29;20596;-80
2022/10/17 05:38:50;;;;;;;17.67;11.45;;;;;;;15.20;100.00;68454.25;4910932;29;20099;-80
2022/10/17 05:41:17;;;;;;;13.88;10.20;;;;;;;15.31;100.00;68466.78;4905729;29;20067;-79
2022/10/17 05:43:42;;;;;;;15.13;11.30;;;;;;;15.31;100.00;68466.78;4918337;29;20099;-77
2022/10/17 05:46:08;;;;;;;15.52;11.35;;;;;;;15.35;100.00;68474.03;4915158;29;20057;-79
2022/10/17 05:48:34;;;;;;;14.27;9.50;;;;;;;15.39;100.00;68472.63;4911525;29;20036;-80
2022/10/17 05:51:01;;;;;;;14.43;9.40;;;;;;;15.39;100.00;68473.22;4911134;29;20032;-80
2022/10/17 05:53:31;;;;;;;16.48;10.15;;;;;;;15.42;100.00;68481.41;4920925;29;20048;-78
2022/10/17 05:56:00;;;;;;;18.73;10.50;;;;;;;;;;4910303;29;20051;-79
2022/10/17 05:58:26;;;;;;;17.40;9.43;;;;;;;;;;4916282;29;20044;-79
2022/10/17 06:00:56;;;;;;;15.65;9.90;;;;;;;15.46;100.00;68483.88;4913508;29;20054;-79
2022/10/17 06:03:21;;;;;;;14.85;10.02;;;;;;;15.44;100.00;68481.59;4915935;29;20038;-78
2022/10/17 06:05:46;;;;;;;13.48;9.55;;;;;;;15.46;100.00;68483.31;4906034;29;20048;-79
2022/10/17 06:08:12;;;;;;;11.75;9.63;;;;;;;15.42;100.00;68478.75;4913071;29;20103;-79
2022/10/17 06:10:37;;;;;;;13.15;9.23;;;;;;;15.41;100.00;68478.16;4911342;29;20036;-78
2022/10/17 06:13:02;;;;;;;15.30;9.23;;;;;;;15.39;100.00;68473.22;4920424;29;20043;-79
2022/10/17 06:15:28;;;;;;;14.57;9.65;;;;;;;15.40;100.00;68477.03;4913288;29;20036;-79
2022/10/17 06:17:53;;;;;;;13.70;9.30;;;;;;;15.36;100.00;68472.47;4914668;29;20131;-80
2022/10/17 06:20:18;;;;;;;12.57;10.38;;;;;;;15.38;100.00;68474.75;4903959;29;20041;-79
2022/10/17 06:22:44;;;;;;;12.30;9.30;;;;;;;15.36;100.00;68472.47;4909632;29;20051;-77
2022/10/17 06:25:09;;;;;;;16.08;10.27;;;;;;;;;;4913541;29;20705;-80
2022/10/17 06:27:34;;;;;;;18.63;10.77;;;;;;;15.35;100.00;68471.91;4904644;29;20039;-78
2022/10/17 06:30:00;;;;;;;15.77;10.00;;;;;;;15.34;100.00;68467.53;4915080;29;20162;-79
2022/10/17 06:32:25;;;;;;;12.40;9.43;;;;;;;;;;4915303;29;20040;-79
2022/10/17 06:34:51;;;;;;;16.65;9.73;;;;;;;15.33;100.00;68469.06;4916440;29;20048;-80
2022/10/17 06:37:16;;;;;;;13.70;9.82;;;;;;;15.31;100.00;68469.47;4911505;29;20051;-79
2022/10/17 06:39:42;;;;;;;14.82;10.02;;;;;;;15.33;100.00;68469.66;4908919;29;20051;-80
2022/10/17 06:42:07;;;;;;;12.35;9.75;;;;;;;15.34;100.00;68473.47;4905600;29;20069;-77
2022/10/17 06:44:32;;;;;;;14.10;9.77;;;;;;;15.35;100.00;68474.03;4910242;29;20111;-78
2022/10/17 06:46:59;;;;;;;14.63;9.20;;;;;;;15.35;100.00;68469.22;4913137;29;20036;-77
2022/10/17 06:49:26;;;;;;;14.30;11.57;;;;;;;15.38;100.00;68474.19;4915803;29;20136;-79
2022/10/17 06:51:51;;;;;;;14.52;9.90;;;;;;;15.37;100.00;68470.94;4913230;29;20074;-79
2022/10/17 06:54:16;;;;;;;14.13;8.82;;;;;;;15.35;100.00;68474.03;4911645;29;20403;-80
2022/10/17 06:56:42;;;;;;;13.57;9.30;;;;;;;15.40;100.00;68479.16;4913193;29;20050;-79
2022/10/17 06:59:09;;;;;;;12.75;9.00;;;;;;;15.40;100.00;68479.72;4910814;29;20048;-79
2022/10/17 07:01:34;;;;;;;12.65;9.73;;;;;;;15.43;100.00;68482.56;4915716;29;20043;-79
2022/10/17 07:04:00;;;;;;;11.75;9.02;;;;;;;15.46;100.00;68486.00;4913025;29;20052;-78
2022/10/17 07:06:25;;;;;;;10.45;9.13;;;;;;;15.52;100.00;68493.38;4923873;29;20532;-80
2022/10/17 07:08:51;;;;;;;12.50;8.80;;;;;;;15.54;100.00;68493.00;4916004;29;20444;-77
2022/10/17 07:11:19;;;;;;;11.88;8.48;;;;;;;15.57;100.00;68493.72;4919414;29;20689;-79
2022/10/17 07:13:45;;;;;;;11.80;8.40;;;;;;;15.66;100.00;68500.16;4915663;29;20071;-78
2022/10/17 07:16:11;;;;;;;12.15;8.55;;;;;;;15.69;100.00;68511.66;4916476;29;20068;-80
2022/10/17 07:18:37;;;;;;;12.70;9.07;;;;;;;15.73;100.00;68510.81;4913117;29;20086;-78
2022/10/17 07:21:03;;;;;;;13.23;9.13;;;;;;;15.76;100.00;68516.94;4909269;29;20048;-79
2022/10/17 07:23:28;;;;;;;11.82;8.30;;;;;;;15.77;100.00;68521.34;4919579;29;20063;-78
2022/10/17 07:26:01;;;;;;;11.30;8.30;;;;;;;15.84;100.00;68525.47;4917630;29;20117;-79
2022/10/17 07:28:27;;;;;;;11.32;7.93;;;;;;;15.87;100.00;68526.22;4908977;29;20048;-79
2022/10/17 07:30:53;;;;;;;11.00;6.80;;;;;;;15.96;100.00;68537.03;4912596;29;20095;-78
2022/10/17 07:33:18;;;;;;;12.60;8.18;;;;;;;15.99;100.00;68545.81;4905446;29;20123;-79
2022/10/17 07:35:44;;;;;;;12.35;7.57;;;;;;;16.06;100.00;68552.66;4910328;29;20048;-79
2022/10/17 07:38:09;;;;;;;9.30;7.10;;;;;;;;;;4915139;29;20419;-80
2022/10/17 07:40:34;;;;;;;13.17;8.23;;;;;;;16.15;100.00;68557.56;4916379;29;20444;-79
2022/10/17 07:43:00;;;;;;;12.00;8.18;;;;;;;16.17;100.00;68562.50;4913705;29;20288;-80
2022/10/17 07:45:26;;;;;;;10.55;7.82;;;;;;;16.21;100.00;68564.97;4915556;29;20044;-78
2022/10/17 07:47:56;;;;;;;11.95;8.13;;;;;;;16.23;100.00;68569.38;4910331;29;20047;-80
2022/10/17 07:50:21;;;;;;;12.23;8.05;;;;;;;16.27;100.00;68573.91;4914930;29;20480;-79
2022/10/17 07:52:46;;;;;;;11.27;8.35;;;;;;;16.33;100.00;68582.88;4905836;29;20048;-77
2022/10/17 07:55:12;;;;;;;9.27;6.88;;;;;;;16.37;100.00;68588.00;4918413;29;20103;-79
2022/10/17 07:57:39;;;;;;;10.73;7.65;;;;;;;16.40;100.00;68588.75;4917338;29;20040;-80
2022/10/17 08:00:05;;;;;;;8.85;7.50;;;;;;;16.47;100.00;68599.41;4904519;29;20049;-79
2022/10/17 08:02:31;;;;;;;10.88;7.90;;;;;;;16.55;100.00;68605.28;4909295;29;20130;-79
2022/10/17 08:04:56;;;;;;;14.85;7.68;;;;;;;16.59;100.00;68609.25;4917656;29;20112;-79
2022/10/17 08:07:21;;;;;;;11.50;7.20;;;;;;;16.62;100.00;68615.34;4911647;29;20691;-79
2022/10/17 08:09:47;;;;;;;11.57;7.70;;;;;;;;;;4914524;29;20135;-79
2022/10/17 08:12:13;;;;;;;9.40;7.47;;;;;;;16.69;100.00;68618.53;4917396;29;20047;-80
2022/10/17 08:14:39;;;;;;;12.05;7.45;;;;;;;16.75;100.00;68624.25;4912762;29;20303;-80
2022/10/17 08:17:05;;;;;;;12.48;7.13;;;;;;;16.81;100.00;68636.47;4920141;29;20123;-79
2022/10/17 08:19:30;;;;;;;10.70;6.90;;;;;;;16.89;100.00;68643.50;4913590;29;20608;-80
2022/10/17 08:21:57;;;;;;;11.77;7.82;;;;;;;16.94;100.00;68648.03;4911633;29;20048;-80
2022/10/17 08:24:22;;;;;;;12.07;7.15;;;;;;;17.00;100.00;68654.88;4915432;29;20046;-79
2022/10/17 08:26:47;;;;;;;10.38;6.40;;;;;;;17.07;100.00;68665.56;4910685;29;20040;-80
2022/10/17 08:29:14;;;;;;;12.68;7.07;;;;;;;17.13;100.00;68672.41;4913260;29;20053;-80
2022/10/17 08:31:39;;;;;;;9.70;7.28;;;;;;;;;;4923590;29;20047;-80
2022/10/17 08:34:04;;;;;;;8.20;6.00;;;;;;;17.22;100.00;68679.41;4915286;29;20045;-80
2022/10/17 08:36:30;;;;;;;8.75;7.13;;;;;;;17.25;100.00;68682.84;4920693;29;20374;-80
2022/10/17 08:38:55;;;;;;;12.48;6.30;;;;;;;17.26;100.00;68683.97;4913018;29;20492;-79
2022/10/17 08:41:48;;;;;;;10.30;6.43;;;;;;;17.25;100.00;68685.53;4910187;29;20048;-81
2022/10/17 08:44:42;;;;;;;9.32;7.03;;;;;;;17.26;100.00;68684.56;4931181;29;20048;-79
2022/10/17 08:47:32;;;;;;;10.27;6.53;;;;;;;17.24;100.00;68684.97;4884929;29;20539;-80
2022/10/17 08:50:02;;;;;;;10.65;7.15;;;;;;;17.28;100.00;68688.94;4909278;29;20056;-80
2022/10/17 08:53:01;;;;;;;8.73;6.28;;;;;;;17.34;100.00;68696.34;4914270;29;20496;-80
2022/10/17 08:55:37;;;;;;;;;;;;;;;17.36;100.00;68698.63;4910899;29;20051;-80
2022/10/17 08:58:19;;;;;;;12.30;6.60;;;;;;;17.36;100.00;68695.38;4919146;29;20009;-79
2022/10/17 09:00:53;;;;;;;13.40;6.90;;;;;;;17.44;100.00;68699.13;4921072;29;20052;-80
2022/10/17 09:03:42;;;;;;;11.55;6.53;;;;;;;17.53;100.00;68711.53;4915957;29;20484;-80
2022/10/17 09:06:28;;;;;;;11.82;7.43;;;;;;;17.56;100.00;68717.63;4926838;29;20059;-80
2022/10/17 09:09:12;;;;;;;11.20;7.07;;;;;;;17.61;100.00;68723.34;4920290;29;20055;-80
2022/10/17 09:11:47;;;;;;;10.55;6.90;;;;;;;17.63;100.00;68727.72;4907360;29;20111;-80
2022/10/17 09:14:34;;;;;;;11.07;6.43;;;;;;;17.65;100.00;68725.22;4911997;29;20044;-79
2022/10/17 09:17:25;;;;;;;9.60;6.72;;;;;;;17.71;100.00;68737.44;4910333;29;20135;-80
2022/10/17 09:20:27;;;;;;;8.32;6.25;;;;;;;17.75;100.00;68739.31;4908206;29;20083;-78
2022/10/17 09:22:59;;;;;;;10.18;6.32;;;;;;;17.80;100.00;68742.34;4903901;29;20056;-79
2022/10/17 09:25:26;;;;;;;10.55;6.47;;;;;;;17.86;100.00;68745.34;4911727;29;20673;-79
2022/10/17 09:28:10;;;;;;;11.55;6.15;;;;;;;17.91;100.00;68753.75;4913830;29;20064;-78
2022/10/17 09:30:50;;;;;;;11.15;6.35;;;;;;;17.96;100.00;68765.44;4919089;29;20105;-78
2022/10/17 09:33:21;;;;;;;9.43;6.45;;;;;;;18.03;100.00;68772.84;4908076;29;20491;-78
2022/10/17 09:35:48;;;;;;;10.25;6.50;;;;;;;18.03;100.00;68767.44;4914662;29;20052;-78
2022/10/17 09:38:17;;;;;;;9.15;5.75;;;;;;;18.07;100.00;68772.03;4917186;29;20040;-78
2022/10/17 09:40:44;;;;;;;10.82;5.40;;;;;;;18.13;100.00;68781.00;4915888;29;20058;-79
2022/10/17 09:43:12;;;;;;;12.85;6.13;;;;;;;18.15;100.00;68781.13;4913044;29;20463;-79
2022/10/17 09:45:49;;;;;;;9.20;5.30;;;;;;;18.16;100.00;68779.03;4925607;29;20557;-79
2022/10/17 09:48:23;;;;;;;8.77;5.40;;;;;;;18.17;100.00;68780.72;4914943;29;20077;-79
2022/10/17 09:50:48;;;;;;;8.57;5.13;;;;;;;18.18;100.00;68784.59;4909759;29;20043;-78
2022/10/17 09:53:21;;;;;;;6.55;4.30;;;;;;;18.19;100.00;68788.41;4918080;29;20040;-79
2022/10/17 09:55:51;;;;;;;7.30;5.10;;;;;;;18.18;100.00;68784.59;4917700;29;20056;-79
2022/10/17 09:58:16;;;;;;;8.18;5.78;;;;;;;18.16;100.00;68787.13;4911347;29;20048;-78
2022/10/17 10:00:45;;;;;;;7.35;5.00;;;;;;;18.14;100.00;68780.00;4907221;29;20048;-79
2022/10/17 10:03:19;;;;;;;9.70;6.25;;;;;;;18.10;100.00;68778.16;4911420;29;20160;-78
2022/10/17 10:06:17;;;;;;;9.13;5.20;;;;;;;18.07;100.00;68776.81;4921053;29;20130;-80
2022/10/17 10:08:50;;;;;;;12.48;6.35;;;;;;;18.05;100.00;68772.44;4909712;29;20108;-78
2022/10/17 10:11:16;;;;;;;10.13;5.63;;;;;;;17.96;100.00;68760.03;4914928;29;20158;-78
2022/10/17 10:13:44;;;;;;;10.40;6.43;;;;;;;17.94;100.00;68757.19;4916241;29;20048;-78
2022/10/17 10:16:31;;;;;;;9.23;5.78;;;;;;;17.91;100.00;68757.03;4900347;29;20075;-78
2022/10/17 10:18:56;;;;;;;10.38;5.78;;;;;;;;;;4907337;29;20040;-78
2022/10/17 10:21:24;;;;;;;10.35;5.07;;;;;;;17.86;100.00;68745.34;4909056;29;20054;-78
2022/10/17 10:23:58;;;;;;;9.80;6.38;;;;;;;17.83;100.00;68744.63;4912669;29;20047;-78
2022/10/17 10:26:26;;;;;;;11.38;6.20;;;;;;;17.78;100.00;68745.47;4912919;29;20043;-78
2022/10/17 10:28:56;;;;;;;8.83;6.10;;;;;;;17.75;100.00;68739.31;4914595;29;20050;-78
2022/10/17 10:31:28;;;;;;;10.98;6.40;;;;;;;17.71;100.00;68734.75;4914323;29;20508;-78
2022/10/17 10:33:53;;;;;;;10.05;6.70;;;;;;;17.67;100.00;68727.50;4910742;29;20045;-78
2022/10/17 10:36:21;;;;;;;9.85;6.90;;;;;;;17.59;100.00;68723.75;4916188;29;20115;-78
2022/10/17 10:38:53;;;;;;;13.05;6.68;;;;;;;17.46;100.00;68708.91;4912438;29;20048;-79
2022/10/17 10:41:20;;;;;;;10.80;7.47;;;;;;;17.35;100.00;68692.13;4920056;29;20046;-78
2022/10/17 10:43:47;;;;;;;11.25;7.60;;;;;;;17.28;100.00;68686.81;4902722;29;20072;-78
2022/10/17 10:46:19;;;;;;;13.38;9.30;;;;;;;17.22;100.00;68677.28;4896513;29;20048;-78
2022/10/17 10:48:52;;;;;;;13.05;8.60;;;;;;;;;;4911677;29;20055;-78
2022/10/17 10:51:48;;;;;;;13.13;8.65;;;;;;;17.07;100.00;68666.13;4909997;29;20044;-78
2022/10/17 10:54:20;;;;;;;12.93;9.30;;;;;;;17.03;100.00;68658.88;4876281;29;20526;-79
2022/10/17 10:56:49;;;;;;;15.82;9.98;;;;;;;16.97;100.00;68648.78;4939183;29;20267;-79
2022/10/17 10:59:22;;;;;;;14.65;9.20;;;;;;;;;;4905281;29;20119;-79
2022/10/17 11:01:55;;;;;;;14.15;9.52;;;;;;;16.88;100.00;68642.34;4915890;29;20052;-78
2022/10/17 11:05:02;;;;;;;17.98;11.43;;;;;;;16.88;100.00;68644.47;4918663;29;20507;-79
2022/10/17 11:07:34;;;;;;;17.42;10.82;;;;;;;16.83;100.00;68636.06;4916256;29;20104;-78
2022/10/17 11:09:59;;;;;;;13.50;10.35;;;;;;;16.80;100.00;68635.34;4901904;29;20049;-78
2022/10/17 11:13:02;;;;;;;17.25;11.55;;;;;;;16.78;100.00;68628.25;4914638;29;20052;-78
2022/10/17 11:15:57;;;;;;;15.93;12.68;;;;;;;16.74;100.00;68623.66;4921450;29;20702;-78
2022/10/17 11:18:32;;;;;;;19.60;13.10;;;;;;;16.75;100.00;68624.25;4884623;29;20052;-78
2022/10/17 11:21:19;;;;;;;19.17;13.95;;;;;;;16.69;100.00;68620.66;4910009;29;20505;-78
2022/10/17 11:24:04;;;;;;;19.48;14.07;;;;;;;16.68;100.00;68619.50;4911426;29;20079;-78
2022/10/17 11:26:35;;;;;;;15.93;12.25;;;;;;;16.65;100.00;68613.97;4916386;29;20049;-78
2022/10/17 11:29:03;;;;;;;15.93;13.20;;;;;;;16.63;100.00;68617.06;4913855;29;20515;-79
2022/10/17 11:31:37;;;;;;;19.85;12.93;;;;;;;16.62;100.00;68615.94;4914931;29;20040;-79
2022/10/17 11:34:21;;;;;;;19.75;14.07;;;;;;;16.65;100.00;68613.41;4926378;29;20048;-79
2022/10/17 11:36:51;;;;;;;23.10;15.25;;;;;;;16.61;100.00;68614.78;4932874;29;20407;-79
2022/10/17 11:39:26;;;;;;;21.35;14.57;;;;;;;16.63;100.00;68617.06;4919354;29;20108;-78
2022/10/17 11:41:56;;;;;;;20.77;13.90;;;;;;;16.59;100.00;68611.94;4935774;29;20070;-78
2022/10/17 11:44:36;;;;;;;21.80;15.23;;;;;;;16.60;100.00;68610.38;4937659;29;20051;-78
2022/10/17 11:47:19;;;;;;;23.75;16.52;;;;;;;16.62;100.00;68613.25;4915158;29;20047;-78